Weather at Biała Podlaska Air Base [CLOSED]

Public forecast

Using degrees Celsius for public forecast. Weather courtesy of forecast.io.

Closest aviation weather report (METAR) to Biała Podlaska Air Base

Closest report is Brest Airport, 29.0 nm (53.7 km) ENE.

2024/07/19 08:00 (retrieved 52 minutes ago)

UMBB 190800Z 31003MPS 9000 SCT030 22/14 Q1021 NOSIG

Closest aviation forecast (TAF) to Biała Podlaska Air Base

Closest forecast is Lublin Airport, 48.3 nm (89.4 km) SSW.

2024/07/19 06:00 (retrieved 3 hours ago)

TAF EPLB 190530Z 1906/2006 36004KT CAVOK